createdAt,value
2022-10-16T00:00:01.044Z,18.10
2022-10-16T00:10:00.161Z,11.50
2022-10-16T00:20:01.543Z,15.10
2022-10-16T00:30:01.316Z,19.70
2022-10-16T00:40:02.276Z,14.60
2022-10-16T00:50:01.052Z,17.00
2022-10-16T01:00:03.461Z,15.80
2022-10-16T01:10:01.265Z,15.50
2022-10-16T01:20:02.756Z,15.70
2022-10-16T01:30:01.981Z,12.00
2022-10-16T01:40:01.912Z,13.30
2022-10-16T01:50:02.472Z,14.60
2022-10-16T02:00:02.727Z,7.80
2022-10-16T02:10:02.165Z,10.90
2022-10-16T02:20:02.740Z,10.60
2022-10-16T02:30:01.270Z,12.80
2022-10-16T02:40:02.097Z,10.30
2022-10-16T02:50:01.295Z,13.00
2022-10-16T03:00:01.081Z,10.90
2022-10-16T03:10:02.806Z,13.40
2022-10-16T03:20:02.997Z,12.00
2022-10-16T03:30:00.160Z,10.60
2022-10-16T03:40:01.350Z,10.80
2022-10-16T03:50:01.168Z,15.40
2022-10-16T04:00:00.171Z,11.10
2022-10-16T04:10:00.174Z,10.20
2022-10-16T04:20:01.004Z,11.80
2022-10-16T04:30:03.167Z,11.00
2022-10-16T04:40:01.491Z,13.30
2022-10-16T04:50:00.974Z,13.10
2022-10-16T05:00:01.351Z,10.20
2022-10-16T05:10:00.113Z,11.00
2022-10-16T05:20:01.283Z,9.60
2022-10-16T05:30:01.291Z,14.40
2022-10-16T05:40:01.042Z,11.20
2022-10-16T05:50:00.948Z,12.40
2022-10-16T06:00:01.289Z,17.70
2022-10-16T06:10:01.257Z,10.10
2022-10-16T06:20:00.162Z,11.80
2022-10-16T06:30:01.248Z,11.10
2022-10-16T06:40:00.160Z,11.50
2022-10-16T06:50:01.106Z,14.20
2022-10-16T07:00:01.333Z,12.90
2022-10-16T07:10:00.144Z,18.40
2022-10-16T07:20:01.377Z,15.70
2022-10-16T07:30:03.702Z,12.30
2022-10-16T07:40:02.529Z,27.90
2022-10-16T07:50:01.275Z,23.90
2022-10-16T08:00:01.293Z,16.30
2022-10-16T08:10:01.454Z,21.60
2022-10-16T08:20:01.046Z,19.00
2022-10-16T08:30:01.238Z,33.30
2022-10-16T08:40:01.518Z,20.30
2022-10-16T08:50:01.298Z,15.70
2022-10-16T09:00:01.593Z,22.50
2022-10-16T09:10:00.799Z,23.00
2022-10-16T09:20:00.986Z,28.00
2022-10-16T09:30:01.234Z,25.00
2022-10-16T09:40:03.727Z,19.90
2022-10-16T09:50:00.946Z,32.10
2022-10-16T10:00:01.290Z,24.10
2022-10-16T10:10:01.270Z,22.90
2022-10-16T10:20:00.973Z,37.90
2022-10-16T10:30:02.031Z,40.80
2022-10-16T10:40:03.907Z,57.90
2022-10-16T10:50:02.031Z,76.30
2022-10-16T11:00:01.105Z,154.50
2022-10-16T11:10:00.157Z,173.10
2022-10-16T11:20:01.290Z,601.80
2022-10-16T11:30:01.571Z,491.70
2022-10-16T11:40:01.569Z,433.70
2022-10-16T11:50:01.950Z,389.80
2022-10-16T12:00:01.088Z,475.90
2022-10-16T12:10:01.537Z,367.70
2022-10-16T12:20:00.298Z,333.80
2022-10-16T12:30:01.034Z,412.30
2022-10-16T12:40:01.294Z,522.60
2022-10-16T12:50:01.481Z,486.10
2022-10-16T13:00:00.176Z,389.00
2022-10-16T13:10:01.504Z,329.70
2022-10-16T13:20:00.158Z,217.40
2022-10-16T13:30:00.152Z,228.40
2022-10-16T13:40:00.175Z,317.70
2022-10-16T13:50:01.053Z,381.80
2022-10-16T14:00:01.001Z,288.30
2022-10-16T14:10:01.344Z,207.10
2022-10-16T14:20:02.874Z,180.40
2022-10-16T14:30:01.155Z,271.80
2022-10-16T14:40:02.004Z,292.90
2022-10-16T14:50:01.341Z,258.40
2022-10-16T15:00:01.513Z,209.10
2022-10-16T15:10:00.802Z,199.80
2022-10-16T15:20:01.053Z,162.80
2022-10-16T15:30:01.241Z,164.00
2022-10-16T15:40:01.299Z,104.30
2022-10-16T15:50:01.128Z,58.80
2022-10-16T16:00:02.047Z,68.50
2022-10-16T16:10:00.988Z,57.00
2022-10-16T16:20:01.278Z,44.70
2022-10-16T16:30:00.990Z,33.60
2022-10-16T16:40:01.318Z,44.00
2022-10-16T16:50:01.439Z,38.30
2022-10-16T17:00:01.331Z,36.50
2022-10-16T17:10:01.025Z,30.40
2022-10-16T17:20:00.988Z,18.60
2022-10-16T17:30:00.976Z,26.60
2022-10-16T17:40:01.411Z,25.10
2022-10-16T17:50:00.205Z,37.40
2022-10-16T18:00:01.527Z,27.00
2022-10-16T18:10:10.126Z,28.20
2022-10-16T18:20:01.481Z,22.50
2022-10-16T18:30:01.271Z,16.70
2022-10-16T18:40:01.516Z,12.30
2022-10-16T18:50:01.001Z,13.00
2022-10-16T19:00:01.081Z,18.20
2022-10-16T19:10:01.452Z,28.00
2022-10-16T19:20:02.121Z,26.10
2022-10-16T19:30:01.596Z,23.90
2022-10-16T19:40:03.041Z,26.40
2022-10-16T19:50:01.942Z,26.80
2022-10-16T20:00:02.437Z,38.00
2022-10-16T20:10:01.491Z,32.60
2022-10-16T20:20:00.152Z,32.50
2022-10-16T20:30:01.518Z,21.20
2022-10-16T20:40:01.520Z,19.40
2022-10-16T20:50:00.149Z,14.50
2022-10-16T21:00:01.068Z,15.50
2022-10-16T21:10:01.039Z,14.10
2022-10-16T21:20:01.942Z,16.90
2022-10-16T21:30:00.989Z,17.00
2022-10-16T21:40:00.137Z,16.20
2022-10-16T21:50:01.068Z,17.80
2022-10-16T22:00:03.108Z,15.30
2022-10-16T22:10:01.714Z,16.50
2022-10-16T22:20:01.969Z,16.40
2022-10-16T22:30:01.291Z,15.50
2022-10-16T22:40:01.157Z,16.70
2022-10-16T22:50:00.125Z,21.10
2022-10-16T23:00:01.901Z,17.90
2022-10-16T23:20:02.011Z,19.40
2022-10-16T23:30:01.588Z,22.70
2022-10-16T23:40:01.004Z,21.80
2022-10-16T23:50:01.060Z,21.80
